Alsey, Illinois
Current Conditions -  °F | °C
As of 9:55 AM on Thursday 27 Nov 2014 (Local Time) from KIJX Reporting Station
Overcast Overcast  
Wind Chill: 18°   Ceiling: 3200
Heat Index: 29°   Visibility: 10mi
Dew Point: 20°   Wind: 14mph
Humidity: 72%   Direction: 300°WNW
Pressure: 30.46"   Gusts: 22mph
Location:  39.56°N, 90.43°W
Report Text: KIJX 271555Z AUTO 30012G19KT 10SM OVC032 M02/M06 A3046 RMK AO2 T10191064
Loading
Personal Weather Stations






























Interactive Weather Map New forecast layout! Learn more

10-Day Weather Forecast

Advertisements
Track Severe Weather on mobile